createdAt,value
2018-12-04T05:02:24.299Z,99.90
2018-12-04T05:04:52.364Z,99.90
2018-12-04T05:07:20.443Z,99.90
2018-12-04T05:09:48.527Z,99.90
2018-12-04T05:12:16.596Z,99.90
2018-12-04T05:14:45.385Z,99.90
2018-12-04T05:17:13.469Z,99.90
2018-12-04T05:19:41.557Z,99.90
2018-12-04T05:22:09.644Z,99.90
2018-12-04T05:24:37.722Z,99.90
2018-12-04T05:27:05.800Z,99.90
2018-12-04T05:29:33.880Z,99.90
2018-12-04T05:32:01.952Z,99.90
2018-12-04T05:34:30.030Z,99.90
2018-12-04T05:36:58.250Z,99.90
2018-12-04T05:39:26.324Z,99.90
2018-12-04T05:41:54.412Z,99.90
2018-12-04T05:44:22.517Z,99.90
2018-12-04T05:46:50.591Z,99.90
2018-12-04T05:49:18.679Z,99.90
2018-12-04T05:51:46.775Z,99.90
2018-12-04T05:54:15.327Z,99.90
2018-12-04T05:56:43.787Z,99.90
2018-12-04T05:59:12.111Z,99.90
2018-12-04T06:01:40.213Z,99.90
2018-12-04T06:04:08.294Z,99.90
2018-12-04T06:06:36.379Z,99.90
2018-12-04T06:09:05.836Z,99.90
2018-12-04T06:11:33.907Z,99.90
2018-12-04T06:14:03.037Z,99.90
2018-12-04T06:16:31.116Z,99.90
2018-12-04T06:18:59.207Z,99.90
2018-12-04T06:21:27.340Z,99.90
2018-12-04T06:23:55.439Z,99.90
2018-12-04T06:26:24.061Z,99.90
2018-12-04T06:28:52.184Z,99.90
2018-12-04T06:31:20.313Z,99.90
2018-12-04T06:33:48.413Z,99.90
2018-12-04T06:36:18.099Z,99.90
2018-12-04T06:38:46.249Z,99.90
2018-12-04T06:41:14.392Z,99.90
2018-12-04T06:43:42.684Z,99.90
2018-12-04T06:46:10.937Z,99.90
2018-12-04T06:48:39.053Z,99.90
2018-12-04T06:51:07.159Z,99.90
2018-12-04T06:53:40.899Z,99.90
2018-12-04T06:56:09.259Z,99.90
2018-12-04T06:58:37.356Z,99.90
2018-12-04T07:01:05.568Z,99.90
2018-12-04T07:03:33.639Z,99.90
2018-12-04T07:06:01.724Z,99.90
2018-12-04T07:08:29.840Z,99.90
2018-12-04T07:10:57.940Z,99.90
2018-12-04T07:13:26.013Z,99.90
2018-12-04T07:15:54.108Z,99.90
2018-12-04T07:18:22.179Z,99.90
2018-12-04T07:20:50.272Z,99.90
2018-12-04T07:23:18.427Z,99.90
2018-12-04T07:25:46.517Z,99.90
2018-12-04T07:28:14.638Z,99.90
2018-12-04T07:30:52.280Z,99.90
2018-12-04T07:33:20.380Z,99.90
2018-12-04T07:35:48.480Z,99.90
2018-12-04T07:38:16.555Z,99.90
2018-12-04T07:40:44.651Z,99.90
2018-12-04T07:43:12.716Z,99.90
2018-12-04T07:45:40.816Z,99.90
2018-12-04T07:48:08.904Z,99.90
2018-12-04T07:50:36.992Z,99.90
2018-12-04T07:53:05.074Z,99.90
2018-12-04T07:55:33.164Z,99.90
2018-12-04T07:58:01.253Z,99.90
2018-12-04T08:00:29.812Z,99.90
2018-12-04T08:02:57.905Z,99.90
2018-12-04T08:05:26.989Z,99.90
2018-12-04T08:07:55.067Z,99.90
2018-12-04T08:10:23.177Z,99.90
2018-12-04T08:12:51.223Z,99.90
2018-12-04T08:15:19.308Z,99.90
2018-12-04T08:17:51.239Z,99.90
2018-12-04T08:20:19.317Z,99.90
2018-12-04T08:22:49.078Z,99.90
2018-12-04T08:25:17.165Z,99.90
2018-12-04T08:27:46.915Z,99.90
2018-12-04T08:30:15.002Z,99.90
2018-12-04T08:32:43.100Z,99.90
2018-12-04T08:35:11.320Z,99.90
2018-12-04T08:37:39.429Z,99.90
2018-12-04T08:40:08.310Z,99.90
2018-12-04T08:42:36.391Z,99.90
2018-12-04T08:45:05.299Z,99.90
2018-12-04T08:47:33.375Z,99.90
2018-12-04T08:50:02.971Z,99.90
2018-12-04T08:52:31.047Z,99.90
2018-12-04T08:54:59.123Z,99.90
2018-12-04T08:57:27.226Z,99.90
2018-12-04T08:59:55.303Z,98.80
2018-12-04T09:02:23.384Z,99.10
2018-12-04T09:04:51.459Z,98.70
2018-12-04T09:07:19.551Z,98.60
2018-12-04T09:09:48.716Z,98.90
2018-12-04T09:12:17.969Z,98.90
2018-12-04T09:14:46.055Z,99.00
2018-12-04T09:17:14.131Z,99.00
2018-12-04T09:19:42.217Z,99.00
2018-12-04T09:22:10.286Z,98.30
2018-12-04T09:24:38.391Z,99.10
2018-12-04T09:27:06.490Z,99.20
2018-12-04T09:29:35.124Z,98.10
2018-12-04T09:32:03.172Z,97.40
2018-12-04T09:34:31.243Z,98.80
2018-12-04T09:37:01.423Z,98.70
2018-12-04T09:39:29.509Z,99.10
2018-12-04T09:41:57.584Z,99.20
2018-12-04T09:44:25.665Z,98.10
2018-12-04T09:46:53.744Z,97.30
2018-12-04T09:49:21.838Z,96.70
2018-12-04T09:51:49.924Z,92.80
2018-12-04T09:54:17.959Z,92.80
2018-12-04T09:56:46.055Z,92.60
2018-12-04T09:59:14.249Z,90.00
2018-12-04T10:01:42.259Z,85.70
2018-12-04T10:04:10.371Z,84.20
2018-12-04T10:06:38.449Z,76.10
2018-12-04T10:09:08.656Z,73.10
2018-12-04T10:11:36.739Z,74.00
2018-12-04T10:14:06.015Z,79.00
2018-12-04T10:16:34.100Z,80.40
2018-12-04T10:19:02.688Z,81.50
2018-12-04T10:21:32.993Z,80.30
2018-12-04T10:24:01.085Z,82.50
2018-12-04T10:26:29.169Z,83.30
2018-12-04T10:28:57.263Z,82.60
2018-12-04T10:31:26.149Z,82.10
2018-12-04T10:33:54.224Z,82.20
2018-12-04T10:36:23.237Z,78.50
2018-12-04T10:38:51.319Z,74.50
2018-12-04T10:41:19.400Z,75.80
2018-12-04T10:43:47.491Z,72.30
2018-12-04T10:46:15.572Z,64.80
2018-12-04T10:48:43.696Z,61.60
2018-12-04T10:51:11.780Z,62.30
2018-12-04T10:53:39.879Z,65.10
2018-12-04T10:56:08.095Z,68.50
2018-12-04T10:58:36.388Z,71.20
2018-12-04T11:01:09.981Z,72.50
2018-12-04T11:03:41.643Z,74.60
2018-12-04T11:06:09.716Z,76.30
2018-12-04T11:08:37.812Z,73.60
2018-12-04T11:11:05.901Z,77.70
2018-12-04T11:13:38.040Z,77.00
2018-12-04T11:16:06.120Z,79.30
2018-12-04T11:18:34.193Z,79.80
2018-12-04T11:21:07.045Z,80.00
2018-12-04T11:23:35.115Z,74.80
2018-12-04T11:26:03.869Z,68.10
2018-12-04T11:28:31.960Z,62.80
2018-12-04T11:31:00.041Z,56.60
2018-12-04T11:33:31.931Z,51.60
2018-12-04T11:36:00.061Z,52.30
2018-12-04T11:38:28.171Z,47.80
2018-12-04T11:40:56.256Z,49.80
2018-12-04T11:43:24.343Z,51.70
2018-12-04T11:45:52.429Z,58.50
2018-12-04T11:48:21.923Z,65.40
2018-12-04T11:50:50.003Z,69.90
2018-12-04T11:53:18.083Z,72.50
2018-12-04T11:55:46.185Z,72.90
2018-12-04T11:58:14.284Z,73.00
2018-12-04T12:00:42.372Z,62.90
2018-12-04T12:03:10.457Z,56.00
2018-12-04T12:05:38.538Z,52.10
2018-12-04T12:08:06.658Z,49.50
2018-12-04T12:10:34.730Z,47.00
2018-12-04T12:13:02.831Z,46.40
2018-12-04T12:15:31.107Z,44.80
2018-12-04T12:17:59.216Z,44.00
2018-12-04T12:20:27.448Z,44.60
2018-12-04T12:22:55.532Z,50.00
2018-12-04T12:25:23.603Z,53.80
2018-12-04T12:27:51.748Z,52.00
2018-12-04T12:30:19.888Z,52.80
2018-12-04T12:32:48.011Z,55.30
2018-12-04T12:35:16.088Z,56.90
2018-12-04T12:37:44.176Z,61.60
2018-12-04T12:40:32.009Z,66.70
2018-12-04T12:43:00.084Z,65.80
2018-12-04T12:45:28.158Z,68.40
2018-12-04T12:47:56.395Z,69.70
2018-12-04T12:50:24.460Z,70.50
2018-12-04T12:52:52.581Z,67.20
2018-12-04T12:55:20.837Z,64.90
2018-12-04T12:57:48.946Z,66.50
2018-12-04T13:00:18.864Z,68.30
2018-12-04T13:02:52.992Z,67.90
2018-12-04T13:05:22.075Z,64.10
2018-12-04T13:07:50.175Z,64.80
2018-12-04T13:10:18.299Z,66.50
2018-12-04T13:12:46.467Z,68.90
2018-12-04T13:15:14.698Z,71.60
2018-12-04T13:17:42.804Z,73.60
2018-12-04T13:20:11.440Z,70.10
2018-12-04T13:22:39.596Z,66.90
2018-12-04T13:25:07.791Z,63.30
2018-12-04T13:27:35.900Z,66.10
2018-12-04T13:30:05.984Z,67.10
2018-12-04T13:32:34.076Z,62.20
2018-12-04T13:35:02.332Z,64.00
2018-12-04T13:37:30.401Z,67.40
2018-12-04T13:39:58.659Z,70.20
2018-12-04T13:42:27.343Z,70.80
2018-12-04T13:45:00.999Z,69.70
2018-12-04T13:47:29.276Z,71.70
2018-12-04T13:49:57.426Z,71.40
2018-12-04T13:52:29.334Z,70.20
2018-12-04T13:54:58.868Z,65.00
2018-12-04T13:57:27.091Z,60.20
2018-12-04T13:59:55.207Z,56.20
2018-12-04T14:02:23.287Z,53.50
2018-12-04T14:04:51.379Z,52.70
2018-12-04T14:07:19.788Z,50.80
2018-12-04T14:09:48.819Z,50.00
2018-12-04T14:12:16.903Z,48.90
2018-12-04T14:14:45.009Z,49.90
2018-12-04T14:17:14.051Z,51.20
2018-12-04T14:19:47.659Z,50.90
2018-12-04T14:22:16.292Z,52.80
2018-12-04T14:24:43.843Z,53.60
2018-12-04T14:27:14.172Z,52.90
2018-12-04T14:29:42.296Z,54.30
2018-12-04T14:32:10.370Z,54.30
2018-12-04T14:34:38.439Z,54.30
2018-12-04T14:37:06.530Z,55.10
2018-12-04T14:39:40.289Z,57.40
2018-12-04T14:42:08.341Z,57.60
2018-12-04T14:44:37.459Z,58.00
2018-12-04T14:48:09.335Z,56.60
2018-12-04T14:50:37.445Z,59.10
2018-12-04T14:53:05.617Z,59.50
2018-12-04T14:55:33.685Z,63.20
2018-12-04T14:58:01.766Z,65.10
2018-12-04T15:00:29.896Z,66.50
2018-12-04T15:03:00.654Z,67.90
2018-12-04T15:05:28.746Z,71.80
2018-12-04T15:07:56.831Z,74.30
2018-12-04T15:10:24.929Z,78.30
2018-12-04T15:12:53.054Z,80.60
2018-12-04T15:15:21.315Z,83.50
2018-12-04T15:17:49.394Z,84.60
2018-12-04T15:20:17.753Z,86.20
2018-12-04T15:22:45.826Z,87.50
2018-12-04T15:25:13.890Z,88.60
2018-12-04T15:27:41.968Z,89.40
2018-12-04T15:30:11.009Z,90.70
2018-12-04T15:32:39.073Z,90.90
2018-12-04T15:35:07.172Z,91.50
2018-12-04T15:37:35.380Z,92.50
2018-12-04T15:40:03.742Z,92.70
2018-12-04T15:42:31.836Z,92.70
2018-12-04T15:44:59.968Z,92.70
2018-12-04T15:47:27.963Z,93.00
2018-12-04T15:49:56.036Z,93.60
2018-12-04T15:52:27.416Z,94.10
2018-12-04T15:54:55.510Z,95.20
2018-12-04T15:57:23.543Z,95.80
